Corinth, West Virginia
Current Conditions -  °F | °C
As of 3:40 PM on Saturday 25 Oct 2014 (Local Time) from K2G4 Reporting Station
Scattered Clouds Scattered Clouds  
Wind Chill: 55°   Ceiling: Unl
Heat Index: 55°   Visibility: 10mi
Dew Point: 43°   Wind: 14mph
Humidity: 63%   Direction: 250°WSW
Pressure: 29.86"   Gusts: 23mph
Location:  39.4346°N, 79.5727°W
Report Text: K2G4 251940Z AUTO 25012G20KT 10SM SCT041 13/06 A2986 RMK AO1
Loading
Personal Weather Stations






























Interactive Weather Map
Tropical Storm Tracking
New forecast layout! Learn more

10-Day Weather Forecast

Advertisements
Track Severe Weather on mobile